createdAt,value
2018-06-30T00:00:22.343Z,70.62
2018-06-30T00:01:22.337Z,70.02
2018-06-30T00:02:22.325Z,70.02
2018-06-30T00:03:22.335Z,70.32
2018-06-30T00:04:22.298Z,69.92
2018-06-30T00:05:22.287Z,70.32
2018-06-30T00:06:22.277Z,71.03
2018-06-30T00:07:22.266Z,71.44
2018-06-30T00:08:22.300Z,70.62
2018-06-30T00:09:22.244Z,71.84
2018-06-30T00:10:22.287Z,71.44
2018-06-30T00:11:22.222Z,71.44
2018-06-30T00:12:22.214Z,71.03
2018-06-30T00:13:22.226Z,71.77
2018-06-30T00:14:22.190Z,71.97
2018-06-30T00:15:22.179Z,72.47
2018-06-30T00:16:22.174Z,72.98
2018-06-30T00:17:22.158Z,74.08
2018-06-30T00:18:22.184Z,73.68
2018-06-30T00:19:22.138Z,72.98
2018-06-30T00:20:22.126Z,72.98
2018-06-30T00:21:22.127Z,73.62
2018-06-30T00:22:22.108Z,72.78
2018-06-30T00:23:22.122Z,72.58
2018-06-30T00:24:22.082Z,73.38
2018-06-30T00:25:22.072Z,74.02
2018-06-30T00:26:22.061Z,73.82
2018-06-30T00:27:22.051Z,73.72
2018-06-30T00:28:22.064Z,73.92
2018-06-30T00:29:22.031Z,74.12
2018-06-30T00:30:22.028Z,73.92
2018-06-30T00:31:22.025Z,73.82
2018-06-30T00:32:21.997Z,74.02
2018-06-30T00:33:22.010Z,74.32
2018-06-30T00:34:21.976Z,74.32
2018-06-30T00:35:21.967Z,74.32
2018-06-30T00:36:21.957Z,74.02
2018-06-30T00:37:21.944Z,74.12
2018-06-30T00:38:22.030Z,74.93
2018-06-30T00:39:21.924Z,74.43
2018-06-30T00:40:21.913Z,74.73
2018-06-30T00:41:21.903Z,74.46
2018-06-30T00:42:21.894Z,75.07
2018-06-30T00:43:21.905Z,75.43
2018-06-30T00:44:21.879Z,75.57
2018-06-30T00:45:21.862Z,75.57
2018-06-30T00:46:21.851Z,76.07
2018-06-30T00:47:21.843Z,75.98
2018-06-30T00:48:21.853Z,76.18
2018-06-30T00:49:21.824Z,76.21
2018-06-30T00:50:21.808Z,76.48
2018-06-30T00:51:21.797Z,76.72
2018-06-30T00:52:21.787Z,76.48
2018-06-30T00:53:21.805Z,76.51
2018-06-30T00:54:21.776Z,76.92
2018-06-30T00:55:21.755Z,76.62
2018-06-30T00:56:21.744Z,76.82
2018-06-30T00:57:21.734Z,76.92
2018-06-30T00:58:21.749Z,77.02
2018-06-30T00:59:21.715Z,76.72
2018-06-30T01:00:21.727Z,77.02
2018-06-30T01:01:21.692Z,77.42
2018-06-30T01:02:21.684Z,77.02
2018-06-30T01:03:21.696Z,77.26
2018-06-30T01:04:21.680Z,76.95
2018-06-30T01:05:21.653Z,76.95
2018-06-30T01:06:21.639Z,77.15
2018-06-30T01:07:21.629Z,77.15
2018-06-30T01:08:21.640Z,76.82
2018-06-30T01:09:21.606Z,77.86
2018-06-30T01:10:21.595Z,78.17
2018-06-30T01:11:21.584Z,77.66
2018-06-30T01:12:21.574Z,77.76
2018-06-30T01:13:21.594Z,77.86
2018-06-30T01:14:21.556Z,78.67
2018-06-30T01:15:21.542Z,78.17
2018-06-30T01:16:21.531Z,78.27
2018-06-30T01:17:21.523Z,78.88
2018-06-30T01:18:21.535Z,78.27
2018-06-30T01:19:21.499Z,77.86
2018-06-30T01:20:21.489Z,77.76
2018-06-30T01:21:21.480Z,78.06
2018-06-30T01:22:21.468Z,77.76
2018-06-30T01:23:21.481Z,77.66
2018-06-30T01:24:21.447Z,77.76
2018-06-30T01:25:21.436Z,78.27
2018-06-30T01:26:21.426Z,79.28
2018-06-30T01:27:21.433Z,78.71
2018-06-30T01:28:21.429Z,79.08
2018-06-30T01:29:21.393Z,78.10
2018-06-30T01:30:21.383Z,78.67
2018-06-30T01:31:21.372Z,79.41
2018-06-30T01:32:21.361Z,79.58
2018-06-30T01:33:21.377Z,78.97
2018-06-30T01:34:21.342Z,79.17
2018-06-30T01:35:21.331Z,79.32
2018-06-30T01:36:21.320Z,79.21
2018-06-30T01:37:21.310Z,79.82
2018-06-30T01:38:21.338Z,79.41
2018-06-30T01:39:21.289Z,79.62
2018-06-30T01:40:21.295Z,79.72
2018-06-30T01:41:21.277Z,79.62
2018-06-30T01:42:21.259Z,79.66
2018-06-30T01:43:21.246Z,79.55
2018-06-30T01:44:21.259Z,79.82
2018-06-30T01:45:21.225Z,79.86
2018-06-30T01:46:21.216Z,80.06
2018-06-30T01:47:21.207Z,79.75
2018-06-30T01:48:21.193Z,80.57
2018-06-30T01:49:21.210Z,80.06
2018-06-30T01:50:21.194Z,79.96
2018-06-30T01:51:21.168Z,79.75
2018-06-30T01:52:21.155Z,81.07
2018-06-30T01:53:21.147Z,81.07
2018-06-30T01:54:21.168Z,80.36
2018-06-30T01:55:21.119Z,80.97
2018-06-30T01:56:21.109Z,81.27
2018-06-30T01:57:21.102Z,80.87
2018-06-30T01:58:21.089Z,81.17
2018-06-30T01:59:21.077Z,80.66
2018-06-30T02:00:21.101Z,81.37
2018-06-30T02:01:21.056Z,81.68
2018-06-30T02:02:21.049Z,81.27
2018-06-30T02:03:21.046Z,81.48
2018-06-30T02:04:21.030Z,81.68
2018-06-30T02:05:21.038Z,81.71
2018-06-30T02:06:21.004Z,81.92
2018-06-30T02:07:20.993Z,81.82
2018-06-30T02:08:20.982Z,80.80
2018-06-30T02:09:20.978Z,82.42
2018-06-30T02:10:21.019Z,82.93
2018-06-30T02:11:20.951Z,82.83
2018-06-30T02:12:20.945Z,82.53
2018-06-30T02:13:20.942Z,82.53
2018-06-30T02:14:20.919Z,82.93
2018-06-30T02:15:20.909Z,82.93
2018-06-30T02:16:20.922Z,82.73
2018-06-30T02:17:20.887Z,83.33
2018-06-30T02:18:20.878Z,83.27
2018-06-30T02:19:20.867Z,83.23
2018-06-30T02:20:20.856Z,83.13
2018-06-30T02:21:20.870Z,83.03
2018-06-30T02:22:20.835Z,83.54
2018-06-30T02:23:20.844Z,83.47
2018-06-30T02:24:20.874Z,83.37
2018-06-30T02:25:20.809Z,83.27
2018-06-30T02:26:20.835Z,82.73
2018-06-30T02:27:20.781Z,83.47
2018-06-30T02:28:20.771Z,83.68
2018-06-30T02:29:20.759Z,83.27
2018-06-30T02:30:20.750Z,83.03
2018-06-30T02:31:20.739Z,83.33
2018-06-30T02:32:20.756Z,83.03
2018-06-30T02:33:20.717Z,83.47
2018-06-30T02:34:20.707Z,83.07
2018-06-30T02:35:20.697Z,83.98
2018-06-30T02:36:20.704Z,83.68
2018-06-30T02:37:20.674Z,83.78
2018-06-30T02:38:20.688Z,83.88
2018-06-30T02:39:20.653Z,83.78
2018-06-30T02:40:20.644Z,84.08
2018-06-30T02:41:20.632Z,84.48
2018-06-30T02:42:20.622Z,83.88
2018-06-30T02:43:20.643Z,84.79
2018-06-30T02:44:20.600Z,84.63
2018-06-30T02:45:20.589Z,84.69
2018-06-30T02:46:20.587Z,85.19
2018-06-30T02:47:20.568Z,85.10
2018-06-30T02:48:20.560Z,84.89
2018-06-30T02:49:20.573Z,85.03
2018-06-30T02:50:20.535Z,85.13
2018-06-30T02:51:20.530Z,84.63
2018-06-30T02:52:20.513Z,84.79
2018-06-30T02:53:20.503Z,84.99
2018-06-30T02:54:20.519Z,85.13
2018-06-30T02:55:20.483Z,85.03
2018-06-30T02:56:20.470Z,84.73
2018-06-30T02:57:20.462Z,84.93
2018-06-30T02:58:20.448Z,84.73
2018-06-30T02:59:20.443Z,84.83
2018-06-30T03:00:20.450Z,84.59
2018-06-30T03:01:20.419Z,85.03
2018-06-30T03:02:20.406Z,84.59
2018-06-30T03:03:20.394Z,84.73
2018-06-30T03:04:20.383Z,84.93
2018-06-30T03:05:20.406Z,85.13
2018-06-30T03:06:20.362Z,85.13
2018-06-30T03:07:20.354Z,84.73
2018-06-30T03:08:20.365Z,84.83
2018-06-30T03:09:20.341Z,85.33
2018-06-30T03:10:20.323Z,84.93
2018-06-30T03:11:20.332Z,85.33
2018-06-30T03:12:20.297Z,85.54
2018-06-30T03:13:20.287Z,85.64
2018-06-30T03:14:20.275Z,85.68
2018-06-30T03:15:20.269Z,85.74
2018-06-30T03:16:20.286Z,85.84
2018-06-30T03:17:20.243Z,85.68
2018-06-30T03:18:20.231Z,86.19
2018-06-30T03:19:20.244Z,85.78
2018-06-30T03:20:20.210Z,86.59
2018-06-30T03:21:20.199Z,86.08
2018-06-30T03:22:20.356Z,86.69
2018-06-30T03:23:20.177Z,86.29
2018-06-30T03:24:20.166Z,86.29
2018-06-30T03:25:20.156Z,86.19
2018-06-30T03:26:20.145Z,86.59
2018-06-30T03:27:20.134Z,86.83
2018-06-30T03:28:20.149Z,86.83
2018-06-30T03:29:20.112Z,87.04
2018-06-30T03:30:20.102Z,87.45
2018-06-30T03:31:20.098Z,87.85
2018-06-30T03:32:20.089Z,87.34
2018-06-30T03:33:20.092Z,87.74
2018-06-30T03:34:20.057Z,87.30
2018-06-30T03:35:20.049Z,87.95
2018-06-30T03:36:20.044Z,87.54
2018-06-30T03:37:20.029Z,87.91
2018-06-30T03:38:20.042Z,87.24
2018-06-30T03:39:20.004Z,87.51
2018-06-30T03:40:19.994Z,87.65
2018-06-30T03:41:19.983Z,87.34
2018-06-30T03:42:19.993Z,87.65
2018-06-30T03:43:19.991Z,87.74
2018-06-30T03:44:19.953Z,87.34
2018-06-30T03:45:19.939Z,87.54
2018-06-30T03:46:19.996Z,87.54
2018-06-30T03:47:19.917Z,88.46
2018-06-30T03:48:19.941Z,88.46
2018-06-30T03:49:19.898Z,87.65
2018-06-30T03:50:19.884Z,87.54
2018-06-30T03:51:19.876Z,87.74
2018-06-30T03:52:19.863Z,87.54
2018-06-30T03:53:19.880Z,87.45
2018-06-30T03:54:19.842Z,87.45
2018-06-30T03:55:19.835Z,87.54
2018-06-30T03:56:19.820Z,87.65
2018-06-30T03:57:19.809Z,87.45
2018-06-30T03:58:19.821Z,87.14
2018-06-30T03:59:19.788Z,87.24
2018-06-30T04:00:19.777Z,87.34
2018-06-30T04:01:19.765Z,87.14
2018-06-30T04:02:19.761Z,87.20
2018-06-30T04:03:19.767Z,86.79
2018-06-30T04:04:19.733Z,86.79
2018-06-30T04:05:19.739Z,86.79
2018-06-30T04:06:19.712Z,87.00
2018-06-30T04:07:19.700Z,86.59
2018-06-30T04:08:19.717Z,87.30
2018-06-30T04:09:19.679Z,87.00
2018-06-30T04:10:19.668Z,86.79
2018-06-30T04:11:19.659Z,86.90
2018-06-30T04:12:19.647Z,86.90
2018-06-30T04:13:19.798Z,87.20
2018-06-30T04:14:19.626Z,87.20
2018-06-30T04:15:19.613Z,87.71
2018-06-30T04:16:19.603Z,86.79
2018-06-30T04:17:19.592Z,86.69
2018-06-30T04:18:19.582Z,86.96
2018-06-30T04:19:19.593Z,87.00
2018-06-30T04:20:19.560Z,86.90
2018-06-30T04:21:19.548Z,87.30
2018-06-30T04:22:19.538Z,87.46
2018-06-30T04:23:19.575Z,86.96
2018-06-30T04:24:19.553Z,87.05
2018-06-30T04:25:19.505Z,87.16
2018-06-30T04:26:19.495Z,87.36
2018-06-30T04:27:19.484Z,87.16
2018-06-30T04:28:19.487Z,87.16
2018-06-30T04:29:19.463Z,87.46
2018-06-30T04:30:19.476Z,87.16
2018-06-30T04:31:19.441Z,87.02
2018-06-30T04:32:19.431Z,86.61
2018-06-30T04:33:19.419Z,86.21
2018-06-30T04:34:19.410Z,86.82
2018-06-30T04:35:19.422Z,87.32
2018-06-30T04:36:19.387Z,87.32
2018-06-30T04:37:19.376Z,87.22
2018-06-30T04:38:19.365Z,87.42
2018-06-30T04:39:19.354Z,87.52
2018-06-30T04:40:19.366Z,87.22
2018-06-30T04:41:19.335Z,87.42
2018-06-30T04:42:19.326Z,87.32
2018-06-30T04:43:19.311Z,87.82
2018-06-30T04:44:19.300Z,87.42
2018-06-30T04:45:19.434Z,87.42
2018-06-30T04:46:19.280Z,87.73
2018-06-30T04:47:19.268Z,87.52
2018-06-30T04:48:19.259Z,87.62
2018-06-30T04:49:19.265Z,88.13
2018-06-30T04:50:19.287Z,87.58
2018-06-30T04:51:19.254Z,87.48
2018-06-30T04:52:19.215Z,87.28
2018-06-30T04:53:19.208Z,87.68
2018-06-30T04:54:19.196Z,87.08
2018-06-30T04:55:19.181Z,87.28
2018-06-30T04:56:19.223Z,86.87
2018-06-30T04:57:19.159Z,86.16
2018-06-30T04:58:19.152Z,86.37
2018-06-30T04:59:19.139Z,86.77
2018-06-30T05:00:19.127Z,86.67
2018-06-30T05:01:19.117Z,86.22
2018-06-30T05:02:19.140Z,87.28
2018-06-30T05:03:19.095Z,87.34
2018-06-30T05:04:19.084Z,86.63
2018-06-30T05:05:19.073Z,86.13
2018-06-30T05:06:19.063Z,86.33
2018-06-30T05:07:19.078Z,86.43
2018-06-30T05:08:19.046Z,86.22
2018-06-30T05:09:19.030Z,85.93
2018-06-30T05:10:19.019Z,86.13
2018-06-30T05:11:19.008Z,86.22
2018-06-30T05:12:19.049Z,86.83
2018-06-30T05:13:18.986Z,86.33
2018-06-30T05:14:18.978Z,86.13
2018-06-30T05:15:18.967Z,84.57
2018-06-30T05:16:18.953Z,84.06
2018-06-30T05:17:18.943Z,84.17
2018-06-30T05:18:18.955Z,85.58
2018-06-30T05:19:18.921Z,85.64
2018-06-30T05:20:18.913Z,85.17
2018-06-30T05:21:18.901Z,85.54
2018-06-30T05:22:18.888Z,85.28
2018-06-30T05:23:18.901Z,84.83
2018-06-30T05:24:18.867Z,84.03
2018-06-30T05:25:18.875Z,85.03
2018-06-30T05:26:18.846Z,84.73
2018-06-30T05:27:18.836Z,84.73
2018-06-30T05:28:18.859Z,85.03
2018-06-30T05:29:18.813Z,84.83
2018-06-30T05:30:18.803Z,85.14
2018-06-30T05:31:18.793Z,84.63
2018-06-30T05:32:18.781Z,84.33
2018-06-30T05:33:18.847Z,84.99
2018-06-30T05:34:18.783Z,85.19
2018-06-30T05:35:18.760Z,83.68
2018-06-30T05:36:18.737Z,84.69
2018-06-30T05:37:18.729Z,84.49
2018-06-30T05:38:18.718Z,84.89
2018-06-30T05:39:18.734Z,83.34
2018-06-30T05:40:18.695Z,82.93
2018-06-30T05:41:18.759Z,82.73
2018-06-30T05:42:18.675Z,83.24
2018-06-30T05:43:18.665Z,83.44
2018-06-30T05:44:18.687Z,85.25
2018-06-30T05:45:18.644Z,84.35
2018-06-30T05:46:18.633Z,82.93
2018-06-30T05:47:18.629Z,82.73
2018-06-30T05:48:18.624Z,82.93
2018-06-30T05:49:18.603Z,82.59
2018-06-30T05:50:18.614Z,82.39
2018-06-30T05:51:18.581Z,83.10
2018-06-30T05:52:18.571Z,82.79
2018-06-30T05:53:18.597Z,82.79
2018-06-30T05:54:18.549Z,83.00
2018-06-30T05:55:18.566Z,83.20
2018-06-30T05:56:18.534Z,82.90
2018-06-30T05:57:18.519Z,82.39
2018-06-30T05:58:18.515Z,79.53
2018-06-30T05:59:18.525Z,79.73
2018-06-30T06:00:18.485Z,80.84
2018-06-30T06:01:18.503Z,79.03
2018-06-30T06:02:18.467Z,80.90
2018-06-30T06:03:18.453Z,80.94
2018-06-30T06:04:18.443Z,80.00
2018-06-30T06:05:18.437Z,79.29
2018-06-30T06:06:18.445Z,79.09
2018-06-30T06:07:18.411Z,79.19
2018-06-30T06:08:18.420Z,76.97
2018-06-30T06:09:18.395Z,78.15
2018-06-30T06:10:18.380Z,78.35
2018-06-30T06:11:18.424Z,76.84
2018-06-30T06:12:18.359Z,77.44
2018-06-30T06:13:18.348Z,78.85
2018-06-30T06:14:18.341Z,77.44
2018-06-30T06:15:18.344Z,78.25
2018-06-30T06:16:18.345Z,78.51
2018-06-30T06:17:18.332Z,78.21
2018-06-30T06:18:18.349Z,77.40
2018-06-30T06:19:18.285Z,77.81
2018-06-30T06:20:18.274Z,77.70
2018-06-30T06:21:18.325Z,78.01
2018-06-30T06:22:18.285Z,78.21
2018-06-30T06:23:18.243Z,77.57
2018-06-30T06:24:18.231Z,79.02
2018-06-30T06:25:18.220Z,78.27
2018-06-30T06:26:18.210Z,76.97
2018-06-30T06:27:18.200Z,77.07
2018-06-30T06:28:18.217Z,74.92
2018-06-30T06:29:18.179Z,74.72
2018-06-30T06:30:18.170Z,74.72
2018-06-30T06:31:18.169Z,75.32
2018-06-30T06:32:18.149Z,76.09
2018-06-30T06:33:18.136Z,77.03
2018-06-30T06:34:18.148Z,75.72
2018-06-30T06:35:18.115Z,76.49
2018-06-30T06:36:18.107Z,76.69
2018-06-30T06:37:18.093Z,75.68
2018-06-30T06:38:18.084Z,76.69
2018-06-30T06:39:18.098Z,76.69
2018-06-30T06:40:18.061Z,74.78
2018-06-30T06:41:18.052Z,73.58
2018-06-30T06:42:18.043Z,74.65
2018-06-30T06:43:18.029Z,74.65
2018-06-30T06:44:18.090Z,74.85
2018-06-30T06:45:18.008Z,74.04
2018-06-30T06:46:17.999Z,75.45
2018-06-30T06:47:17.986Z,74.55
2018-06-30T06:48:17.976Z,75.65
2018-06-30T06:49:17.964Z,74.71
2018-06-30T06:50:18.006Z,73.81
2018-06-30T06:51:17.944Z,75.21
2018-06-30T06:52:17.933Z,74.11
2018-06-30T06:53:17.922Z,73.71
2018-06-30T06:54:17.930Z,73.67
2018-06-30T06:55:17.903Z,73.97
2018-06-30T06:56:17.963Z,74.18
2018-06-30T06:57:17.877Z,73.57
2018-06-30T06:58:17.866Z,73.67
2018-06-30T06:59:17.856Z,73.67
2018-06-30T07:00:17.844Z,72.74
2018-06-30T07:01:17.857Z,74.07
2018-06-30T07:02:17.824Z,73.54
2018-06-30T07:03:17.819Z,72.74
2018-06-30T07:04:17.804Z,72.43
2018-06-30T07:05:17.790Z,71.80
2018-06-30T07:06:17.814Z,70.09
2018-06-30T07:07:17.785Z,71.09
2018-06-30T07:08:17.758Z,71.20
2018-06-30T07:09:17.746Z,71.16
2018-06-30T07:10:17.744Z,69.56
2018-06-30T07:11:17.727Z,70.16
2018-06-30T07:12:17.743Z,69.16
2018-06-30T07:13:17.704Z,68.46
2018-06-30T07:14:17.692Z,68.15
2018-06-30T07:15:17.823Z,67.82
2018-06-30T07:16:17.799Z,68.12
2018-06-30T07:17:17.683Z,69.62
2018-06-30T07:18:17.677Z,68.22
2018-06-30T07:19:17.707Z,68.73
2018-06-30T07:20:17.633Z,68.42
2018-06-30T07:21:17.618Z,68.59
2018-06-30T07:22:17.607Z,67.99
2018-06-30T07:23:17.628Z,69.09
2018-06-30T07:24:17.586Z,67.09
2018-06-30T07:25:17.575Z,67.09
2018-06-30T07:26:17.565Z,67.79
2018-06-30T07:27:17.562Z,68.09
2018-06-30T07:28:17.544Z,68.49
2018-06-30T07:29:17.559Z,69.09
2018-06-30T07:30:17.593Z,70.06
2018-06-30T07:31:17.518Z,71.80
2018-06-30T07:32:17.504Z,68.55
2018-06-30T07:33:17.495Z,66.96
2018-06-30T07:34:17.503Z,66.46
2018-06-30T07:35:17.469Z,65.36
